»·PEaware :: AAL394 KDFW-KTUL

AAL394 :: KDFW-KTUL

FLIGHT INFORMATION

Flight Status: Arrived
Operator:
American Airlines
More flights by this operator :: More flights under this callsign
Pilot: John H. (7647)
Aircraft: BOEING 737-800
(B738)
More flights by this aircraft type
Origin: KDFW Dallas-Ft Worth Intl
United States
Destination: KTUL Tulsa Intl
United States
More flights between these airports :: More routes between these airports
Route: GRABE8 EAKER TUL
File this flight plan on PilotEdge
Remarks: PBN / A1B1C1D1S1S2 DOF / 181011 REG / N806SB EET / KZKC0034 OPR / AAL PER / C RMK / TCAS SIMBRIEF
Altitude:
(Current/Filed)
22,000ft
Speed:
(Current/Filed)
422kts
Departed: 11-Oct-18 01:35 PM
Arrived: 11-Oct-18 02:22 PM
Distance/Time
Traveled:
206nm/0:47
Distance/Time
To Go:
Arrived

Flight Plot

Page will automatically refresh every two minutes.

Flight plan parsing failed; only flown route is shown


Map Options




Map Legend


Flown Route
Filed Route
Departure Airport
Arrival Airport
Navaid (VOR, NDB)
Fix

Horizontal Profiles

Position Reports

Time Latitude Longitude Heading Altitude Ground
Speed
11-Oct-18 13:20 32.900051 -97.045736 150 603ft 0kts
11-Oct-18 13:21 32.900051 -97.045736 150 603ft 0kts
11-Oct-18 13:22 32.900051 -97.045736 150 603ft 0kts
11-Oct-18 13:23 32.900051 -97.045736 150 603ft 0kts
11-Oct-18 13:24 32.900219 -97.045859 150 603ft 2kts
11-Oct-18 13:25 32.900683 -97.045791 224 603ft 2kts
11-Oct-18 13:26 32.900812 -97.045378 270 602ft 0kts
11-Oct-18 13:27 32.900812 -97.045379 270 602ft 0kts
11-Oct-18 13:28 32.900812 -97.045390 270 602ft 0kts
11-Oct-18 13:29 32.900835 -97.046050 273 603ft 2kts
11-Oct-18 13:30 32.900928 -97.047050 281 605ft 4kts
11-Oct-18 13:31 32.900939 -97.048731 212 609ft 6kts
11-Oct-18 13:32 32.896826 -97.048877 180 603ft 25kts
11-Oct-18 13:33 32.887439 -97.048942 180 580ft 30kts
11-Oct-18 13:34 32.886054 -97.042814 90 571ft 27kts
11-Oct-18 13:35 32.886011 -97.033163 90 572ft 21kts
11-Oct-18 13:36 32.881623 -97.032034 179 566ft 25kts
11-Oct-18 13:37 32.889758 -97.030060 359 569ft 117kts
11-Oct-18 13:38 32.935209 -97.024600 353 2214ft 174kts
11-Oct-18 13:39 32.983859 -97.024641 353 4291ft 182kts
11-Oct-18 13:40 33.034851 -97.024837 353 6444ft 186kts
11-Oct-18 13:41 33.086885 -97.024330 1 8406ft 196kts
11-Oct-18 13:42 33.144229 -97.014019 4 9382ft 257kts
11-Oct-18 13:43 33.223454 -97.000489 4 10574ft 316kts
11-Oct-18 13:44 33.310375 -96.985595 4 12827ft 328kts
11-Oct-18 13:45 33.401643 -96.970084 4 14993ft 339kts
11-Oct-18 13:46 33.495115 -96.945736 15 16997ft 353kts
11-Oct-18 13:47 33.589095 -96.907864 15 18847ft 363kts
11-Oct-18 13:48 33.686210 -96.869595 15 20506ft 374kts
11-Oct-18 13:49 33.785762 -96.830464 15 21773ft 389kts
11-Oct-18 13:50 33.893008 -96.788279 15 21781ft 419kts
11-Oct-18 13:51 34.003849 -96.744454 15 21777ft 419kts
11-Oct-18 13:52 34.113195 -96.701111 15 21779ft 420kts
11-Oct-18 13:53 34.223862 -96.657090 15 21776ft 419kts
11-Oct-18 13:54 34.334079 -96.611841 20 21780ft 421kts
11-Oct-18 13:55 34.440696 -96.553591 21 21782ft 422kts
11-Oct-18 13:56 34.565540 -96.486042 21 21782ft 421kts
11-Oct-18 13:57 34.672236 -96.428146 21 21782ft 421kts
11-Oct-18 13:58 34.761135 -96.379764 21 21771ft 416kts
11-Oct-18 13:59 34.861028 -96.325225 21 21781ft 395kts
11-Oct-18 14:00 34.960975 -96.270623 21 21699ft 392kts
11-Oct-18 14:01 35.059217 -96.216779 21 19330ft 379kts
11-Oct-18 14:02 35.164076 -96.159109 21 16885ft 359kts
11-Oct-18 14:03 35.239607 -96.117499 21 15095ft 349kts
11-Oct-18 14:04 35.326927 -96.069349 21 12975ft 351kts
11-Oct-18 14:05 35.415132 -96.020495 21 11194ft 337kts
11-Oct-18 14:06 35.496401 -95.975384 21 10291ft 309kts
11-Oct-18 14:07 35.571155 -95.933783 20 9495ft 287kts
11-Oct-18 14:08 35.642555 -95.894056 20 8496ft 279kts
11-Oct-18 14:09 35.713687 -95.861309 3 7512ft 268kts
11-Oct-18 14:10 35.786671 -95.851331 2 6529ft 264kts
11-Oct-18 14:11 35.859152 -95.840299 3 5530ft 262kts
11-Oct-18 14:12 35.930738 -95.829235 2 5024ft 268kts
11-Oct-18 14:13 36.005132 -95.817728 2 4997ft 270kts
11-Oct-18 14:14 36.079238 -95.806226 2 4996ft 270kts
11-Oct-18 14:15 36.152506 -95.794841 2 4999ft 270kts
11-Oct-18 14:16 36.223443 -95.806283 325 5009ft 258kts
11-Oct-18 14:17 36.283880 -95.853480 325 5000ft 258kts
11-Oct-18 14:18 36.330740 -95.916686 300 5000ft 251kts
11-Oct-18 14:19 36.389323 -95.941795 24 5006ft 270kts
11-Oct-18 14:20 36.386209 -95.867617 167 5030ft 264kts
11-Oct-18 14:21 36.316051 -95.874360 187 4294ft 250kts
11-Oct-18 14:22 36.247135 -95.878617 187 1513ft 266kts
11-Oct-18 14:23 36.190945 -95.882693 196 645ft 97kts
11-Oct-18 14:24 36.188275 -95.882844 200 641ft 0kts

Navigation Log

Ident Type
Flight plan parsing failed, navigation log unavailable